Time;durP1;ratioP1;P1;durP2;ratioP2;P2;SDS_P1;SDS_P2;PMS_P1;PMS_P2;Temp;Humidity;BMP_temperature;BMP_pressure;BME280_temperature;BME280_humidity;BME280_pressure;Samples;Min_cycle;Max_cycle;Signal;HPM_P1;HPM_P2
2023/10/27 00:00:45;;;;;;;10.07;7.03;;;15.50;1.00;;;;;;5049309;28;20033;-41
2023/10/27 00:03:11;;;;;;;9.65;7.53;;;15.70;1.00;;;;;;5047687;28;20045;-40
2023/10/27 00:05:36;;;;;;;10.80;7.65;;;16.20;1.00;;;;;;5051626;28;20071;-40
2023/10/27 00:08:02;;;;;;;10.13;7.10;;;15.90;1.00;;;;;;5047100;28;20456;-40
2023/10/27 00:10:28;;;;;;;12.40;7.38;;;15.60;1.00;;;;;;5051581;28;20024;-41
2023/10/27 00:12:54;;;;;;;9.95;7.60;;;15.80;1.00;;;;;;5048076;28;20130;-41
2023/10/27 00:15:20;;;;;;;11.02;7.55;;;15.00;1.00;;;;;;5048602;28;20504;-41
2023/10/27 00:17:46;;;;;;;9.82;7.30;;;;;;;;;;5047064;28;20040;-40
2023/10/27 00:20:12;;;;;;;9.75;7.10;;;15.70;1.00;;;;;;5044963;28;20044;-41
2023/10/27 00:22:38;;;;;;;9.63;6.47;;;15.70;1.00;;;;;;5043984;28;20053;-41
2023/10/27 00:25:04;;;;;;;10.70;6.80;;;15.40;1.00;;;;;;5046901;28;20111;-41
2023/10/27 00:27:30;;;;;;;9.20;6.30;;;15.80;1.00;;;;;;5045551;28;20053;-40
2023/10/27 00:29:55;;;;;;;9.50;6.40;;;16.30;1.00;;;;;;5045181;28;20029;-41
2023/10/27 00:32:21;;;;;;;9.18;6.60;;;15.30;1.00;;;;;;5042724;28;20042;-40
2023/10/27 00:34:47;;;;;;;9.50;6.25;;;15.60;1.00;;;;;;5043408;28;20051;-42
2023/10/27 00:37:12;;;;;;;10.95;6.63;;;15.60;1.00;;;;;;5044711;28;20033;-41
2023/10/27 00:39:39;;;;;;;9.82;6.65;;;;;;;;;;5039635;28;20045;-41
2023/10/27 00:42:05;;;;;;;9.75;6.78;;;;;;;;;;5059437;28;20107;-40
2023/10/27 00:44:31;;;;;;;12.10;6.82;;;15.60;1.00;;;;;;5035497;28;20044;-41
2023/10/27 00:46:57;;;;;;;9.23;6.40;;;15.70;1.00;;;;;;5043811;28;20026;-40
2023/10/27 00:49:23;;;;;;;8.48;6.13;;;15.70;1.00;;;;;;5048039;28;20099;-41
2023/10/27 00:51:49;;;;;;;10.20;6.10;;;15.00;1.00;;;;;;5043286;28;20033;-41
2023/10/27 00:54:17;;;;;;;8.52;6.28;;;15.40;1.00;;;;;;5045580;28;20047;-42
2023/10/27 00:56:44;;;;;;;10.88;6.82;;;;;;;;;;5043662;28;20481;-42
2023/10/27 00:59:12;;;;;;;10.35;6.43;;;15.50;1.00;;;;;;5043195;28;20048;-41
2023/10/27 01:01:37;;;;;;;9.70;6.75;;;16.30;1.00;;;;;;5043869;28;20124;-42
2023/10/27 01:04:03;;;;;;;11.65;6.63;;;;;;;;;;5042663;28;20132;-40
2023/10/27 01:06:30;;;;;;;10.60;6.68;;;;;;;;;;5044370;28;20040;-41
2023/10/27 01:08:56;;;;;;;11.25;6.88;;;16.20;1.00;;;;;;5043782;28;20090;-41
2023/10/27 01:11:22;;;;;;;9.82;6.70;;;;;;;;;;5045011;28;20131;-41
2023/10/27 01:13:52;;;;;;;9.93;7.13;;;15.30;1.00;;;;;;5048503;28;20048;-41
2023/10/27 01:16:18;;;;;;;9.70;6.90;;;15.00;1.00;;;;;;5045140;28;20035;-41
2023/10/27 01:18:44;;;;;;;9.95;6.85;;;;;;;;;;5044116;28;20080;-41
2023/10/27 01:21:10;;;;;;;10.05;7.35;;;15.20;1.00;;;;;;5046093;28;20095;-41
2023/10/27 01:23:35;;;;;;;8.70;6.10;;;15.70;1.00;;;;;;5049607;28;20084;-41
2023/10/27 01:26:03;;;;;;;10.65;7.15;;;;;;;;;;5047172;28;20052;-40
2023/10/27 01:28:29;;;;;;;10.48;6.53;;;15.60;1.00;;;;;;5046654;28;20420;-41
2023/10/27 01:30:56;;;;;;;11.13;7.90;;;15.50;1.00;;;;;;5045562;28;20047;-41
2023/10/27 01:33:22;;;;;;;10.98;7.13;;;15.90;1.00;;;;;;5042858;28;20481;-41
2023/10/27 01:35:49;;;;;;;10.98;7.22;;;15.50;1.00;;;;;;5045438;28;20091;-41
2023/10/27 01:38:15;;;;;;;9.75;6.82;;;;;;;;;;5047681;28;20045;-41
2023/10/27 01:40:40;;;;;;;10.85;6.30;;;16.10;1.00;;;;;;5045229;28;20049;-40
2023/10/27 01:43:06;;;;;;;11.95;6.97;;;;;;;;;;5045960;28;20041;-41
2023/10/27 01:45:32;;;;;;;9.23;6.53;;;;;;;;;;5047099;28;20037;-41
2023/10/27 01:47:58;;;;;;;9.05;5.95;;;15.50;1.00;;;;;;5039100;28;20033;-42
2023/10/27 01:50:24;;;;;;;12.35;6.68;;;;;;;;;;5045686;28;20041;-43
2023/10/27 01:52:50;;;;;;;8.73;6.05;;;15.10;1.00;;;;;;5040771;28;20083;-41
2023/10/27 01:55:15;;;;;;;9.35;5.65;;;15.60;1.00;;;;;;5045337;28;20041;-43
2023/10/27 01:57:41;;;;;;;9.73;6.10;;;;;;;;;;5047833;28;20037;-41
2023/10/27 02:00:08;;;;;;;9.75;6.57;;;;;;;;;;5045630;28;20045;-41
2023/10/27 02:02:35;;;;;;;8.65;5.55;;;;;;;;;;5044556;28;20450;-41
2023/10/27 02:05:03;;;;;;;8.23;5.65;;;15.70;1.00;;;;;;5047721;28;20500;-40
2023/10/27 02:07:28;;;;;;;8.98;6.03;;;15.50;1.00;;;;;;5025502;28;20041;-41
2023/10/27 02:09:58;;;;;;;9.27;5.68;;;15.50;1.00;;;;;;5042271;28;20041;-40
2023/10/27 02:12:24;;;;;;;8.82;5.68;;;;;;;;;;5040746;28;20067;-40
2023/10/27 02:14:50;;;;;;;8.50;5.43;;;;;;;;;;5030665;28;20125;-40
2023/10/27 02:17:16;;;;;;;10.48;6.15;;;;;;;;;;5038347;28;20033;-41
2023/10/27 02:19:42;;;;;;;8.82;5.93;;;;;;;;;;5030001;28;20052;-40
2023/10/27 02:22:08;;;;;;;9.30;5.68;;;;;;;;;;5035154;28;20033;-40
2023/10/27 02:24:34;;;;;;;8.15;5.63;;;15.50;1.00;;;;;;5042291;28;20113;-41
2023/10/27 02:27:00;;;;;;;9.20;5.60;;;15.90;1.00;;;;;;5032428;28;20036;-42
2023/10/27 02:29:26;;;;;;;7.22;4.72;;;15.10;1.00;;;;;;5041317;28;20120;-41
2023/10/27 02:31:52;;;;;;;9.13;5.18;;;;;;;;;;5038550;28;20076;-41
2023/10/27 02:34:18;;;;;;;7.82;4.95;;;14.90;1.00;;;;;;5040805;28;20033;-42
2023/10/27 02:36:43;;;;;;;8.20;5.10;;;15.80;1.00;;;;;;5045075;28;20520;-41
2023/10/27 02:39:09;;;;;;;7.45;4.80;;;;;;;;;;5047688;28;20044;-41
2023/10/27 02:41:38;;;;;;;9.75;5.40;;;15.50;1.00;;;;;;5042288;28;20041;-40
2023/10/27 02:44:04;;;;;;;8.13;4.65;;;15.50;1.00;;;;;;5049329;28;20641;-41
2023/10/27 02:46:30;;;;;;;8.18;4.90;;;15.50;1.00;;;;;;5048008;28;20062;-42
2023/10/27 02:48:55;;;;;;;8.43;5.15;;;15.30;1.00;;;;;;5044174;28;20423;-40
2023/10/27 02:51:21;;;;;;;8.05;4.97;;;15.40;1.00;;;;;;5051113;28;20107;-40
2023/10/27 02:53:47;;;;;;;7.50;4.95;;;15.30;1.00;;;;;;5051475;28;20037;-41
2023/10/27 02:56:13;;;;;;;7.93;4.65;;;15.10;1.00;;;;;;5051103;28;20040;-41
2023/10/27 02:58:39;;;;;;;7.47;4.55;;;15.30;1.00;;;;;;5046971;28;20061;-41
2023/10/27 03:01:14;;;;;;;6.68;4.18;;;;;;;;;;5049605;28;20064;-40
2023/10/27 03:03:39;;;;;;;;;;;15.00;1.00;;;;;;5046987;28;20048;-40
2023/10/27 03:06:06;;;;;;;7.03;4.35;;;;;;;;;;5053728;28;19920;-41
2023/10/27 03:08:33;;;;;;;7.75;4.95;;;15.30;1.00;;;;;;5049965;28;20041;-41
2023/10/27 03:10:58;;;;;;;6.95;4.30;;;14.90;1.00;;;;;;5052687;28;20047;-41
2023/10/27 03:13:26;;;;;;;6.85;4.22;;;15.20;1.00;;;;;;5051078;28;20041;-40
2023/10/27 03:15:51;;;;;;;6.75;4.03;;;15.30;1.00;;;;;;5049133;28;20044;-41
2023/10/27 03:18:17;;;;;;;7.03;4.28;;;15.30;1.00;;;;;;5050043;28;20222;-42
2023/10/27 03:20:42;;;;;;;7.68;4.43;;;15.00;1.00;;;;;;5045003;28;20079;-43
2023/10/27 03:23:09;;;;;;;6.75;4.10;;;15.30;1.00;;;;;;5049066;28;20045;-40
2023/10/27 03:25:34;;;;;;;7.00;3.75;;;15.30;1.00;;;;;;5048547;28;20044;-42
2023/10/27 03:28:00;;;;;;;6.10;3.63;;;;;;;;;;5050051;28;20048;-41
2023/10/27 03:30:27;;;;;;;6.28;3.70;;;15.40;1.00;;;;;;5049589;28;20044;-40
2023/10/27 03:32:53;;;;;;;6.03;3.70;;;15.00;1.00;;;;;;5044937;28;20077;-41
2023/10/27 03:35:19;;;;;;;6.53;4.03;;;15.80;1.00;;;;;;5047328;28;20064;-41
2023/10/27 03:37:45;;;;;;;6.32;3.63;;;15.20;1.00;;;;;;5042461;28;20130;-41
2023/10/27 03:40:11;;;;;;;7.43;3.83;;;;;;;;;;5045024;28;20037;-41
2023/10/27 03:42:37;;;;;;;6.40;3.45;;;15.50;1.00;;;;;;5050988;28;20075;-40
2023/10/27 03:45:03;;;;;;;6.38;3.80;;;;;;;;;;5045567;28;20570;-40
2023/10/27 03:47:29;;;;;;;7.25;4.18;;;15.50;1.00;;;;;;5043181;28;21281;-40
2023/10/27 03:49:54;;;;;;;7.32;4.25;;;15.50;1.00;;;;;;5050486;28;20036;-41
2023/10/27 03:52:20;;;;;;;6.22;3.55;;;15.20;1.00;;;;;;5049965;28;20090;-41
2023/10/27 03:54:46;;;;;;;6.05;3.83;;;15.50;1.00;;;;;;5048114;28;20053;-41
2023/10/27 03:57:11;;;;;;;7.00;3.85;;;15.60;1.00;;;;;;5051204;28;20047;-40
2023/10/27 03:59:37;;;;;;;5.82;3.20;;;15.50;1.00;;;;;;5058680;28;20511;-41
2023/10/27 04:02:04;;;;;;;6.13;3.60;;;;;;;;;;5053292;28;20063;-41
2023/10/27 04:04:30;;;;;;;6.38;3.47;;;15.50;1.00;;;;;;5049136;28;20044;-40
2023/10/27 04:06:56;;;;;;;6.10;3.53;;;15.60;1.00;;;;;;5049606;28;20033;-41
2023/10/27 04:09:22;;;;;;;7.70;3.72;;;15.60;1.00;;;;;;5044059;28;20071;-41
2023/10/27 04:11:49;;;;;;;6.95;3.67;;;15.20;1.00;;;;;;5049302;28;20556;-40
2023/10/27 04:14:15;;;;;;;6.47;3.53;;;;;;;;;;5064007;28;20099;-41
2023/10/27 04:16:41;;;;;;;6.45;3.85;;;15.60;1.00;;;;;;5045085;28;20051;-42
2023/10/27 04:19:07;;;;;;;6.72;4.15;;;15.30;1.00;;;;;;5050071;28;20048;-40
2023/10/27 04:21:32;;;;;;;5.88;3.72;;;15.60;1.00;;;;;;5043973;28;20215;-42
2023/10/27 04:23:59;;;;;;;6.20;3.53;;;15.60;1.00;;;;;;5050156;28;20037;-41
2023/10/27 04:26:24;;;;;;;5.75;3.08;;;15.70;1.00;;;;;;5048740;28;20051;-41
2023/10/27 04:28:50;;;;;;;6.55;3.80;;;15.50;1.00;;;;;;5048944;28;20539;-42
2023/10/27 04:31:16;;;;;;;5.70;3.40;;;15.70;1.00;;;;;;5047009;28;20088;-40
2023/10/27 04:33:43;;;;;;;5.80;3.42;;;15.70;1.00;;;;;;5049639;28;20397;-41
2023/10/27 04:36:09;;;;;;;6.35;3.80;;;15.00;1.00;;;;;;5044430;28;20443;-41
2023/10/27 04:38:34;;;;;;;6.43;3.45;;;15.60;1.00;;;;;;5051756;28;20151;-41
2023/10/27 04:41:00;;;;;;;6.43;3.55;;;15.70;1.00;;;;;;5056721;28;20040;-42
2023/10/27 04:43:25;;;;;;;5.60;3.20;;;15.70;1.00;;;;;;5056771;28;20041;-41
2023/10/27 04:45:51;;;;;;;6.40;3.22;;;16.40;1.00;;;;;;5043170;28;20037;-41
2023/10/27 04:48:17;;;;;;;6.20;3.22;;;15.50;1.00;;;;;;5049417;28;20041;-42
2023/10/27 04:50:43;;;;;;;6.03;3.50;;;15.40;1.00;;;;;;5049973;28;20029;-41
2023/10/27 04:53:08;;;;;;;5.97;3.45;;;15.70;1.00;;;;;;5051076;28;20094;-41
2023/10/27 04:55:34;;;;;;;6.75;3.80;;;;;;;;;;5048776;28;20518;-42
2023/10/27 04:58:00;;;;;;;8.60;3.75;;;15.70;1.00;;;;;;5054370;28;20488;-42
2023/10/27 05:00:26;;;;;;;5.68;3.15;;;15.50;1.00;;;;;;5047630;28;20037;-41
2023/10/27 05:02:53;;;;;;;6.90;3.75;;;;;;;;;;5046365;28;20044;-40
2023/10/27 05:05:20;;;;;;;5.68;3.08;;;;;;;;;;5058321;28;20518;-41
2023/10/27 05:07:47;;;;;;;5.90;3.20;;;15.50;1.00;;;;;;5047533;28;20091;-42
2023/10/27 05:10:13;;;;;;;6.38;3.17;;;16.40;1.00;;;;;;5046408;28;20499;-41
2023/10/27 05:12:38;;;;;;;6.53;3.70;;;15.50;1.00;;;;;;5041311;28;20025;-41
2023/10/27 05:15:05;;;;;;;6.60;3.47;;;16.30;1.00;;;;;;5044270;28;20120;-42
2023/10/27 05:17:34;;;;;;;6.63;3.80;;;;;;;;;;5054518;28;20513;-42
2023/10/27 05:20:02;;;;;;;6.65;3.15;;;15.80;1.00;;;;;;5049467;28;20036;-40
2023/10/27 05:22:28;;;;;;;6.43;3.47;;;15.80;1.00;;;;;;5050016;28;20412;-42
2023/10/27 05:24:53;;;;;;;8.13;3.83;;;15.30;1.00;;;;;;5053606;28;20033;-41
2023/10/27 05:27:19;;;;;;;16.83;6.35;;;16.20;1.00;;;;;;5045850;28;20451;-41
2023/10/27 05:29:45;;;;;;;19.38;8.27;;;;;;;;;;5048154;28;20044;-42
2023/10/27 05:32:12;;;;;;;19.90;8.50;;;15.80;1.00;;;;;;5049322;28;20116;-42
2023/10/27 05:34:38;;;;;;;17.05;7.20;;;16.40;1.00;;;;;;5063864;28;20041;-41
2023/10/27 05:37:03;;;;;;;14.52;6.72;;;15.70;1.00;;;;;;5055262;28;20506;-41
2023/10/27 05:39:29;;;;;;;15.90;7.22;;;;;;;;;;5052573;28;20128;-41
2023/10/27 05:41:55;;;;;;;18.58;7.45;;;15.50;1.00;;;;;;5053846;28;20048;-40
2023/10/27 05:44:21;;;;;;;13.70;6.38;;;;;;;;;;5052619;28;20063;-42
2023/10/27 05:46:47;;;;;;;14.07;6.75;;;15.50;1.00;;;;;;5054913;28;20412;-42
2023/10/27 05:49:13;;;;;;;15.40;5.97;;;15.70;1.00;;;;;;5050434;28;20070;-41
2023/10/27 05:51:38;;;;;;;14.35;5.88;;;16.30;1.00;;;;;;5050549;28;20034;-42
2023/10/27 05:54:05;;;;;;;16.90;6.55;;;16.00;1.00;;;;;;5060347;28;20048;-42
2023/10/27 05:56:30;;;;;;;12.40;5.53;;;15.80;1.00;;;;;;5056789;28;20048;-42
2023/10/27 05:58:56;;;;;;;13.95;5.88;;;16.50;1.00;;;;;;5053285;28;20040;-40
2023/10/27 06:01:23;;;;;;;11.65;5.85;;;;;;;;;;5048297;28;20469;-41
2023/10/27 06:03:49;;;;;;;13.00;5.28;;;;;;;;;;5061757;28;20119;-40
2023/10/27 06:06:15;;;;;;;16.27;5.95;;;15.30;1.00;;;;;;5053226;28;20086;-42
2023/10/27 06:08:44;;;;;;;13.00;5.22;;;15.80;1.00;;;;;;5053511;28;20439;-41
2023/10/27 06:11:10;;;;;;;10.48;4.80;;;15.40;1.00;;;;;;5053655;28;20041;-41
2023/10/27 06:13:37;;;;;;;9.32;5.30;;;;;;;;;;5055116;28;20508;-40
2023/10/27 06:16:03;;;;;;;9.05;5.00;;;15.30;1.00;;;;;;5055833;28;20043;-41
2023/10/27 06:18:29;;;;;;;10.40;5.07;;;15.80;1.00;;;;;;5055319;28;20455;-41
2023/10/27 06:20:55;;;;;;;10.07;4.63;;;15.60;1.00;;;;;;5051994;28;20044;-42
2023/10/27 06:23:20;;;;;;;9.77;4.70;;;15.80;1.00;;;;;;5054301;28;20052;-41
2023/10/27 06:25:46;;;;;;;9.30;4.95;;;16.40;1.00;;;;;;5056748;28;20036;-41
2023/10/27 06:28:12;;;;;;;10.18;5.15;;;15.90;1.00;;;;;;5053953;28;20040;-40
2023/10/27 06:30:38;;;;;;;7.50;4.25;;;;;;;;;;5023023;28;20117;-42
2023/10/27 06:33:04;;;;;;;8.73;4.70;;;16.10;1.00;;;;;;5060617;28;20189;-41
2023/10/27 06:35:30;;;;;;;9.35;4.93;;;15.80;1.00;;;;;;5059061;28;20040;-40
2023/10/27 06:37:56;;;;;;;9.75;4.70;;;15.80;1.00;;;;;;5064416;28;20036;-41
2023/10/27 06:40:22;;;;;;;8.70;4.72;;;15.70;1.00;;;;;;5054453;28;20436;-42
2023/10/27 06:42:47;;;;;;;8.60;4.68;;;15.60;1.00;;;;;;5065177;28;20052;-41
2023/10/27 06:45:15;;;;;;;7.57;4.50;;;14.90;1.00;;;;;;5060844;28;20045;-41
2023/10/27 06:47:41;;;;;;;8.57;4.38;;;15.70;1.00;;;;;;5064577;28;20029;-41
2023/10/27 06:50:07;;;;;;;10.30;4.40;;;15.80;1.00;;;;;;5055224;28;20033;-41
2023/10/27 06:52:34;;;;;;;7.22;4.00;;;15.80;1.00;;;;;;5047676;28;20389;-41
2023/10/27 06:55:00;;;;;;;7.28;4.05;;;15.40;1.00;;;;;;5053630;28;20040;-41
2023/10/27 06:57:27;;;;;;;6.82;3.58;;;;;;;;;;5044091;28;20204;-41
2023/10/27 06:59:55;;;;;;;8.70;4.15;;;16.00;1.00;;;;;;5052202;28;20035;-42
2023/10/27 07:02:22;;;;;;;19.90;5.93;;;15.80;1.00;;;;;;5047946;28;20041;-40
2023/10/27 07:04:48;;;;;;;56.67;16.75;;;15.70;1.00;;;;;;5047759;28;20052;-42
2023/10/27 07:07:15;;;;;;;33.13;12.45;;;;;;;;;;5056324;28;20029;-41
2023/10/27 07:09:42;;;;;;;29.02;11.25;;;16.30;1.00;;;;;;5042001;28;20080;-41
2023/10/27 07:12:08;;;;;;;21.05;9.32;;;15.40;1.00;;;;;;5050817;28;20484;-42
2023/10/27 07:14:36;;;;;;;33.03;9.43;;;15.90;1.00;;;;;;5045030;28;20044;-42
2023/10/27 07:17:01;;;;;;;19.83;9.32;;;15.50;1.00;;;;;;5049493;28;20484;-41
2023/10/27 07:19:27;;;;;;;26.33;10.10;;;;;;;;;;5046745;28;20044;-42
2023/10/27 07:21:53;;;;;;;21.75;7.30;;;15.70;1.00;;;;;;5048386;28;20086;-42
2023/10/27 07:24:20;;;;;;;22.63;7.45;;;;;;;;;;5057564;28;20082;-41
2023/10/27 07:26:46;;;;;;;20.45;7.15;;;15.20;1.00;;;;;;5044297;28;20409;-41
2023/10/27 07:29:11;;;;;;;14.40;5.90;;;16.50;1.00;;;;;;5054780;28;20035;-42
2023/10/27 07:31:37;;;;;;;12.63;5.70;;;15.80;1.00;;;;;;5049065;28;20090;-42
2023/10/27 07:34:05;;;;;;;13.23;5.60;;;15.90;1.00;;;;;;5046487;28;20045;-41
2023/10/27 07:36:31;;;;;;;14.05;5.80;;;;;;;;;;5044228;28;20124;-42
2023/10/27 07:38:58;;;;;;;17.48;6.60;;;16.40;1.00;;;;;;5044922;28;20065;-41
2023/10/27 07:41:24;;;;;;;12.50;5.10;;;15.90;1.00;;;;;;5051366;28;20044;-42
2023/10/27 07:43:49;;;;;;;13.05;5.25;;;15.90;1.00;;;;;;5049318;28;20121;-42
2023/10/27 07:46:16;;;;;;;12.88;5.28;;;15.30;1.00;;;;;;5050488;28;20111;-41
2023/10/27 07:48:42;;;;;;;10.52;4.90;;;16.00;1.00;;;;;;5049758;28;20514;-40
2023/10/27 07:51:07;;;;;;;11.68;4.03;;;16.20;1.00;;;;;;5056879;28;20064;-42
2023/10/27 07:53:33;;;;;;;11.15;4.90;;;15.80;1.00;;;;;;5045431;28;20056;-42
2023/10/27 07:55:59;;;;;;;9.65;4.22;;;16.40;1.00;;;;;;5045902;28;20523;-41
2023/10/27 07:58:25;;;;;;;11.57;4.10;;;;;;;;;;5058944;28;20423;-42
2023/10/27 08:00:51;;;;;;;10.95;4.85;;;16.50;1.00;;;;;;5054792;28;20043;-42
2023/10/27 08:03:18;;;;;;;8.20;3.70;;;16.40;1.00;;;;;;5048176;28;20116;-42
2023/10/27 08:05:44;;;;;;;8.80;3.58;;;15.60;1.00;;;;;;5060734;28;20432;-42
2023/10/27 08:08:10;;;;;;;7.95;4.00;;;;;;;;;;5047664;28;20047;-41
2023/10/27 08:10:38;;;;;;;12.82;4.05;;;15.80;1.00;;;;;;5039055;28;20436;-40
2023/10/27 08:13:05;;;;;;;6.78;3.53;;;;;;;;;;5034464;28;20049;-41
2023/10/27 08:15:32;;;;;;;7.45;3.38;;;15.90;1.00;;;;;;5047298;28;20045;-42
2023/10/27 08:17:57;;;;;;;7.95;3.15;;;15.70;1.00;;;;;;5050777;28;20040;-41
2023/10/27 08:20:23;;;;;;;7.53;3.65;;;15.90;1.00;;;;;;5049843;28;20033;-41
2023/10/27 08:22:49;;;;;;;8.50;3.40;;;15.50;1.00;;;;;;5055178;28;20064;-41
2023/10/27 08:25:14;;;;;;;6.53;3.45;;;15.80;1.00;;;;;;5047369;28;20512;-42
2023/10/27 08:27:40;;;;;;;9.02;3.33;;;15.30;1.00;;;;;;5051997;28;20044;-41
2023/10/27 08:30:06;;;;;;;6.25;3.40;;;;;;;;;;5050142;28;20033;-42
2023/10/27 08:32:32;;;;;;;5.97;2.90;;;;;;;;;;5044291;28;20036;-41
2023/10/27 08:34:58;;;;;;;7.10;3.22;;;15.90;1.00;;;;;;5049701;28;20183;-41
2023/10/27 08:37:25;;;;;;;6.35;3.30;;;15.90;1.00;;;;;;5048540;28;20564;-42
2023/10/27 08:39:52;;;;;;;6.78;2.83;;;16.50;1.00;;;;;;5048531;28;20041;-42
2023/10/27 08:42:18;;;;;;;7.10;3.10;;;15.50;1.00;;;;;;5053148;28;20037;-42
2023/10/27 08:44:45;;;;;;;5.80;2.78;;;15.90;1.00;;;;;;5051326;28;20043;-42
2023/10/27 08:47:12;;;;;;;6.82;3.20;;;;;;;;;;5056857;28;20037;-42
2023/10/27 08:49:38;;;;;;;6.45;2.70;;;;;;;;;;5046215;28;20037;-41
2023/10/27 08:52:04;;;;;;;6.13;2.88;;;;;;;;;;5050819;28;20110;-42
2023/10/27 08:54:31;;;;;;;5.60;2.60;;;15.90;1.00;;;;;;5056210;28;20048;-41
2023/10/27 08:56:56;;;;;;;5.22;2.70;;;16.20;1.00;;;;;;5057828;28;20045;-41
2023/10/27 08:59:23;;;;;;;6.28;2.97;;;16.00;1.00;;;;;;5056832;28;20045;-41
2023/10/27 09:01:48;;;;;;;5.28;2.50;;;16.00;1.00;;;;;;5048552;28;20045;-42
2023/10/27 09:04:19;;;;;;;6.15;2.50;;;16.00;1.00;;;;;;5047307;28;20037;-41
2023/10/27 09:06:45;;;;;;;6.47;2.90;;;15.40;1.00;;;;;;5056895;28;20028;-42
2023/10/27 09:09:11;;;;;;;5.25;2.70;;;;;;;;;;5054697;28;20361;-42
2023/10/27 09:11:58;;;;;;;5.50;2.70;;;15.90;1.00;;;;;;5054340;28;20392;-41
2023/10/27 09:14:30;;;;;;;5.63;2.70;;;16.00;1.00;;;;;;5048355;28;20635;-42
2023/10/27 09:17:08;;;;;;;6.82;3.10;;;16.20;1.00;;;;;;5049021;28;20036;-41
2023/10/27 09:19:34;;;;;;;5.75;2.92;;;15.60;1.00;;;;;;5054835;28;20045;-42
2023/10/27 09:22:00;;;;;;;5.57;2.55;;;;;;;;;;5051732;28;20480;-42
2023/10/27 09:24:29;;;;;;;5.40;2.70;;;16.40;1.00;;;;;;5047401;28;20446;-42
2023/10/27 09:26:56;;;;;;;4.93;2.80;;;;;;;;;;5048781;28;20397;-42
2023/10/27 09:29:22;;;;;;;5.22;2.65;;;16.00;1.00;;;;;;5048685;28;20033;-40
2023/10/27 09:31:50;;;;;;;5.60;3.00;;;;;;;;;;5050445;28;20110;-41
2023/10/27 09:34:23;;;;;;;5.80;3.15;;;15.60;1.00;;;;;;5049946;28;20037;-42
2023/10/27 09:36:51;;;;;;;6.07;3.05;;;;;;;;;;5054832;28;20108;-42
2023/10/27 09:39:23;;;;;;;6.32;3.40;;;16.20;1.00;;;;;;5053962;28;20500;-42
2023/10/27 09:42:03;;;;;;;5.55;2.90;;;16.60;1.00;;;;;;5054486;28;20566;-41
2023/10/27 09:44:55;;;;;;;6.18;3.58;;;;;;;;;;5051548;28;20029;-42
2023/10/27 09:47:33;;;;;;;6.07;2.95;;;15.50;1.00;;;;;;5049023;28;20125;-42
2023/10/27 09:50:06;;;;;;;6.15;3.33;;;16.20;1.00;;;;;;5049086;28;20095;-42
2023/10/27 09:52:33;;;;;;;6.55;3.70;;;16.30;1.00;;;;;;5049333;28;20072;-42
2023/10/27 09:55:01;;;;;;;6.20;3.85;;;16.10;1.00;;;;;;5050599;28;20039;-42
2023/10/27 09:57:28;;;;;;;6.93;4.22;;;;;;;;;;5051117;28;20037;-42
2023/10/27 09:59:58;;;;;;;7.28;3.38;;;16.40;1.00;;;;;;5048330;28;20077;-42
2023/10/27 10:02:24;;;;;;;6.47;3.72;;;;;;;;;;5049527;28;20484;-42
2023/10/27 10:04:53;;;;;;;6.82;3.88;;;16.00;1.00;;;;;;5047997;28;20120;-42
2023/10/27 10:07:29;;;;;;;6.18;3.63;;;;;;;;;;5049370;28;20048;-42
2023/10/27 10:09:54;;;;;;;6.68;3.72;;;16.00;1.00;;;;;;5047547;28;20037;-42
2023/10/27 10:12:20;;;;;;;6.50;3.72;;;16.00;1.00;;;;;;5044496;28;20044;-43
2023/10/27 10:14:48;;;;;;;6.07;3.50;;;;;;;;;;5049612;28;20025;-41
2023/10/27 10:17:37;;;;;;;5.32;2.83;;;15.30;1.00;;;;;;5080849;28;20068;-42
2023/10/27 10:20:05;;;;;;;6.22;3.85;;;16.60;1.00;;;;;;5050765;28;20523;-42
2023/10/27 10:22:40;;;;;;;6.90;4.07;;;;;;;;;;5048317;28;20079;-41
2023/10/27 10:25:15;;;;;;;7.93;3.83;;;15.50;1.00;;;;;;5050550;28;20467;-42
2023/10/27 10:28:08;;;;;;;6.30;3.80;;;16.10;1.00;;;;;;5047852;28;20041;-41
2023/10/27 10:30:38;;;;;;;5.90;3.30;;;;;;;;;;5049973;28;20029;-42
2023/10/27 10:33:15;;;;;;;6.05;3.60;;;16.10;1.00;;;;;;5053615;28;20415;-42
2023/10/27 10:35:41;;;;;;;5.63;3.13;;;;;;;;;;5045753;28;20041;-42
2023/10/27 10:38:23;;;;;;;5.97;3.47;;;;;;;;;;5047608;28;20112;-42
2023/10/27 10:40:50;;;;;;;6.20;3.63;;;;;;;;;;5079801;28;20049;-42
2023/10/27 10:43:20;;;;;;;6.35;3.55;;;16.00;1.00;;;;;;5048259;28;20061;-42
2023/10/27 10:45:51;;;;;;;5.72;3.33;;;16.60;1.00;;;;;;5048491;28;20037;-42
2023/10/27 10:48:21;;;;;;;6.57;3.75;;;16.30;1.00;;;;;;5078493;28;20087;-42
2023/10/27 10:50:48;;;;;;;8.30;4.50;;;;;;;;;;5047735;28;20479;-42
2023/10/27 10:53:19;;;;;;;5.57;3.22;;;16.70;1.00;;;;;;5046930;28;20033;-42
2023/10/27 10:55:45;;;;;;;6.00;3.72;;;15.60;1.00;;;;;;5048104;28;20489;-42
2023/10/27 10:58:23;;;;;;;6.45;3.80;;;15.50;1.00;;;;;;5048976;28;21077;-41
2023/10/27 11:00:49;;;;;;;5.82;3.30;;;;;;;;;;5044647;28;20045;-41
2023/10/27 11:03:18;;;;;;;6.80;3.92;;;16.00;1.00;;;;;;5049212;28;20080;-42
2023/10/27 11:05:44;;;;;;;7.25;3.90;;;;;;;;;;5052847;28;20069;-42
2023/10/27 11:08:10;;;;;;;6.40;3.70;;;16.60;1.00;;;;;;5052439;28;20041;-41
2023/10/27 11:10:36;;;;;;;6.38;3.42;;;;;;;;;;5052158;28;20067;-41
2023/10/27 11:13:06;;;;;;;6.97;3.67;;;15.90;1.00;;;;;;5050507;28;20047;-42
2023/10/27 11:15:41;;;;;;;6.50;3.55;;;15.80;1.00;;;;;;5054684;28;20037;-41
2023/10/27 11:18:10;;;;;;;6.93;4.00;;;15.70;1.00;;;;;;5050761;28;20048;-42
2023/10/27 11:20:39;;;;;;;6.47;3.85;;;16.00;1.00;;;;;;5052227;28;20041;-41
2023/10/27 11:23:07;;;;;;;6.28;3.90;;;16.10;1.00;;;;;;5052962;28;20392;-41
2023/10/27 11:25:33;;;;;;;6.15;3.60;;;16.20;1.00;;;;;;5052227;28;20426;-42
2023/10/27 11:28:18;;;;;;;7.72;4.25;;;;;;;;;;5052721;28;20082;-42
2023/10/27 11:30:54;;;;;;;7.38;4.55;;;16.00;1.00;;;;;;5049545;28;20116;-41
2023/10/27 11:33:20;;;;;;;7.63;4.30;;;15.70;1.00;;;;;;5051817;28;20038;-42
2023/10/27 11:35:46;;;;;;;6.80;3.97;;;16.00;1.00;;;;;;5051700;28;20118;-41
2023/10/27 11:38:12;;;;;;;6.88;4.40;;;15.60;1.00;;;;;;5050838;28;20048;-41
2023/10/27 11:40:38;;;;;;;6.40;3.90;;;15.40;1.00;;;;;;5049888;28;20040;-41
2023/10/27 11:43:04;;;;;;;7.53;4.60;;;16.40;1.00;;;;;;5050170;28;20040;-41
2023/10/27 11:45:34;;;;;;;7.15;4.38;;;15.80;1.00;;;;;;5050864;28;20219;-41
2023/10/27 11:48:00;;;;;;;6.80;3.90;;;16.00;1.00;;;;;;5052396;28;20501;-41
2023/10/27 11:50:25;;;;;;;7.07;4.05;;;16.10;1.00;;;;;;5051590;28;20044;-44
2023/10/27 11:52:51;;;;;;;7.85;4.28;;;16.40;1.00;;;;;;5050767;28;20082;-42
2023/10/27 11:55:17;;;;;;;6.70;4.10;;;;;;;;;;5045715;28;20063;-42
2023/10/27 11:57:43;;;;;;;7.40;4.57;;;16.60;1.00;;;;;;5050676;28;20036;-42
2023/10/27 12:00:09;;;;;;;6.53;4.20;;;16.10;1.00;;;;;;5048533;28;20515;-42
2023/10/27 12:02:35;;;;;;;7.07;4.57;;;16.10;1.00;;;;;;5049313;28;20045;-42
2023/10/27 12:05:00;;;;;;;8.35;4.82;;;15.80;1.00;;;;;;5049591;28;20427;-42
2023/10/27 12:07:26;;;;;;;7.70;4.45;;;16.20;1.00;;;;;;5050807;28;20079;-42
2023/10/27 12:09:52;;;;;;;6.85;4.57;;;16.50;1.00;;;;;;5049156;28;20036;-41
2023/10/27 12:12:17;;;;;;;7.38;4.22;;;16.50;1.00;;;;;;5049086;28;20037;-42
2023/10/27 12:14:43;;;;;;;7.45;4.68;;;16.10;1.00;;;;;;5050013;28;20025;-42
2023/10/27 12:17:09;;;;;;;7.20;4.45;;;15.30;1.00;;;;;;5049813;28;20562;-42
2023/10/27 12:19:35;;;;;;;6.47;3.97;;;16.80;1.00;;;;;;5048013;28;20075;-42
2023/10/27 12:22:01;;;;;;;8.32;4.45;;;15.60;1.00;;;;;;5049622;28;20029;-42
2023/10/27 12:24:27;;;;;;;8.05;4.80;;;16.40;1.00;;;;;;5050394;28;20487;-41
2023/10/27 12:26:55;;;;;;;7.95;5.15;;;15.50;1.00;;;;;;5050717;28;20044;-41
2023/10/27 12:29:26;;;;;;;7.15;4.63;;;16.40;1.00;;;;;;5049635;28;20086;-41
2023/10/27 12:31:51;;;;;;;8.30;4.80;;;16.10;1.00;;;;;;5046028;28;20546;-42
2023/10/27 12:34:18;;;;;;;7.03;4.63;;;16.60;1.00;;;;;;5050617;28;20078;-43
2023/10/27 12:36:48;;;;;;;7.40;4.75;;;16.50;1.00;;;;;;5044226;28;20073;-42
2023/10/27 12:39:15;;;;;;;7.63;4.82;;;16.20;1.00;;;;;;5031954;28;20068;-42
2023/10/27 12:41:41;;;;;;;7.25;4.57;;;15.40;1.00;;;;;;5040748;28;20045;-42
2023/10/27 12:44:06;;;;;;;7.40;4.45;;;16.00;1.00;;;;;;5049633;28;20040;-42
2023/10/27 12:46:32;;;;;;;7.25;5.05;;;16.10;1.00;;;;;;5049573;28;20040;-42
2023/10/27 12:48:57;;;;;;;7.47;4.85;;;15.60;1.00;;;;;;5049813;28;20128;-42
2023/10/27 12:51:23;;;;;;;7.80;4.97;;;16.10;1.00;;;;;;5049083;28;20403;-42
2023/10/27 12:53:49;;;;;;;7.07;4.40;;;;;;;;;;5047697;28;20064;-41
2023/10/27 12:56:15;;;;;;;7.90;4.68;;;15.60;1.00;;;;;;5047426;28;20112;-41
2023/10/27 12:58:41;;;;;;;7.30;4.53;;;16.50;1.00;;;;;;5049649;28;20039;-42
2023/10/27 13:01:06;;;;;;;7.10;4.72;;;15.50;1.00;;;;;;5048722;28;20036;-42
2023/10/27 13:03:32;;;;;;;7.53;4.75;;;16.20;1.00;;;;;;5049218;28;20094;-42
2023/10/27 13:05:58;;;;;;;8.00;4.60;;;15.50;1.00;;;;;;5047641;28;20397;-42
2023/10/27 13:08:23;;;;;;;7.80;4.75;;;16.10;1.00;;;;;;5048492;28;20110;-42
2023/10/27 13:10:49;;;;;;;7.85;4.70;;;;;;;;;;5045421;28;20385;-42
2023/10/27 13:13:15;;;;;;;8.05;5.32;;;16.50;1.00;;;;;;5046893;28;20037;-42
2023/10/27 13:15:41;;;;;;;7.15;4.45;;;15.60;1.00;;;;;;5049118;28;20083;-41